Time;durP1;ratioP1;P1;durP2;ratioP2;P2;SDS_P1;SDS_P2;PMS_P1;PMS_P2;Temp;Humidity;BMP_temperature;BMP_pressure;BME280_temperature;BME280_humidity;BME280_pressure;Samples;Min_cycle;Max_cycle;Signal;HPM_P1;HPM_P2
2021/12/31 00:01:00;;;;;;;;;9.00;9.00;;;;;20.79;49.84;100342.34;106842;1292;21538;-76
2021/12/31 00:03:28;;;;;;;;;9.67;9.67;;;;;20.83;49.84;100345.55;106862;1295;18156;-76
2021/12/31 00:05:55;;;;;;;;;10.00;10.00;;;;;20.82;49.93;100345.95;106922;1293;18856;-76
2021/12/31 00:08:22;;;;;;;;;10.00;9.00;;;;;20.82;49.87;100346.61;106852;1295;21961;-76
2021/12/31 00:10:54;;;;;;;;;13.33;12.33;;;;;20.81;49.73;100347.59;106850;1301;18332;-77
2021/12/31 00:13:22;;;;;;;;;12.00;10.00;;;;;20.83;49.83;100352.13;106841;1291;22020;-76
2021/12/31 00:15:49;;;;;;;;;9.00;9.00;;;;;20.82;49.87;100357.14;106847;1302;19400;-77
2021/12/31 00:18:16;;;;;;;;;10.00;10.00;;;;;20.82;49.61;100363.30;106818;1302;18791;-76
2021/12/31 00:20:44;;;;;;;;;10.67;10.00;;;;;20.82;49.73;100366.56;106915;1293;19203;-76
2021/12/31 00:23:14;;;;;;;;;10.00;9.50;;;;;20.82;49.81;100370.34;106813;1301;19429;-77
2021/12/31 00:25:41;;;;;;;;;9.50;9.50;;;;;20.82;49.73;100370.00;106812;1292;20024;-76
2021/12/31 00:28:09;;;;;;;;;8.00;8.00;;;;;20.82;49.76;100372.93;106826;1301;18853;-77
2021/12/31 00:30:36;;;;;;;;;9.00;9.00;;;;;20.82;49.64;100375.48;106795;1298;18462;-76
2021/12/31 00:33:04;;;;;;;;;9.00;9.00;;;;;20.82;49.73;100373.48;106895;1301;18412;-76
2021/12/31 00:35:31;;;;;;;;;8.00;7.00;;;;;20.82;49.55;100369.14;106993;1294;18759;-76
2021/12/31 00:37:58;;;;;;;;;9.00;9.00;;;;;20.79;49.50;100366.81;106861;1295;18338;-76
2021/12/31 00:40:26;;;;;;;;;9.67;9.00;;;;;20.81;49.53;100366.66;106916;1293;19475;-76
2021/12/31 00:42:53;;;;;;;;;8.00;8.00;;;;;20.80;49.57;100365.80;106830;1296;18663;-76
2021/12/31 00:45:20;;;;;;;;;9.67;9.00;;;;;20.80;49.51;100370.17;106824;1292;19883;-76
2021/12/31 00:47:48;;;;;;;;;8.00;8.00;;;;;20.79;49.48;100368.32;106856;1300;18151;-76
2021/12/31 00:50:15;;;;;;;;;8.00;6.67;;;;;20.79;49.50;100370.11;106921;1302;19008;-78
2021/12/31 00:52:42;;;;;;;;;9.00;8.00;;;;;20.80;49.44;100375.31;106888;1294;22168;-78
2021/12/31 00:55:10;;;;;;;;;8.00;8.00;;;;;20.79;49.41;100375.39;106848;1296;18142;-78
2021/12/31 00:57:37;;;;;;;;;9.00;9.00;;;;;20.80;49.44;100382.23;106831;1302;19415;-78
2021/12/31 01:00:04;;;;;;;;;9.00;9.00;;;;;20.75;49.29;100378.20;106810;1292;25432;-77
2021/12/31 01:02:32;;;;;;;;;8.33;8.00;;;;;20.79;49.33;100383.19;106852;1302;18149;-77
2021/12/31 01:04:59;;;;;;;;;10.67;6.67;;;;;20.79;49.33;100390.14;106783;1302;18810;-77
2021/12/31 01:07:27;;;;;;;;;6.00;6.00;;;;;20.78;49.41;100397.64;106804;1291;19049;-77
2021/12/31 01:09:56;;;;;;;;;6.00;6.00;;;;;20.78;49.35;100398.05;106817;1299;20250;-76
2021/12/31 01:12:25;;;;;;;;;8.00;8.00;;;;;20.79;49.32;100394.42;106851;1292;18750;-76
2021/12/31 01:14:57;;;;;;;;;9.00;8.00;;;;;20.78;49.21;100386.91;106844;1294;21763;-76
2021/12/31 01:17:40;;;;;;;;;10.00;9.00;;;;;20.78;49.35;100384.77;106867;1298;18142;-76
2021/12/31 01:20:08;;;;;;;;;6.67;6.67;;;;;20.78;49.24;100377.90;106829;1294;19162;-77
2021/12/31 01:22:35;;;;;;;;;9.67;8.33;;;;;20.76;49.16;100376.66;106734;1298;19730;-77
2021/12/31 01:25:04;;;;;;;;;8.50;8.00;;;;;20.78;49.27;100384.77;106863;1290;19486;-77
2021/12/31 01:27:31;;;;;;;;;9.00;8.00;;;;;20.78;49.11;100370.06;106826;1295;26994;-77
2021/12/31 01:29:59;;;;;;;;;9.33;8.33;;;;;20.78;49.16;100373.91;106855;1302;18999;-76
2021/12/31 01:32:26;;;;;;;;;9.00;9.00;;;;;20.78;49.17;100368.30;106914;1295;18319;-78
2021/12/31 01:34:53;;;;;;;;;9.00;6.00;;;;;20.77;49.20;100371.30;106897;1298;19472;-78
2021/12/31 01:37:21;;;;;;;;;9.00;6.00;;;;;20.78;49.18;100371.19;106936;1302;19109;-76
2021/12/31 01:39:48;;;;;;;;;5.00;5.00;;;;;20.78;49.08;100371.90;106857;1295;19311;-79
2021/12/31 01:42:17;;;;;;;;;6.33;5.00;;;;;20.78;49.15;100377.56;106866;1295;19147;-77
2021/12/31 01:44:54;;;;;;;;;8.00;6.00;;;;;20.76;49.22;100373.35;106851;1294;22148;-77
2021/12/31 01:47:23;;;;;;;;;8.00;6.00;;;;;20.76;49.22;100375.91;106910;1302;20582;-77
2021/12/31 01:49:56;;;;;;;;;6.00;6.00;;;;;20.74;49.08;100371.27;106848;1298;19554;-77
2021/12/31 01:52:24;;;;;;;;;6.00;6.00;;;;;20.77;49.04;100380.06;106918;1293;22306;-77
2021/12/31 01:54:51;;;;;;;;;6.00;6.00;;;;;20.76;49.18;100379.23;106893;1302;18073;-77
2021/12/31 01:57:18;;;;;;;;;9.33;7.33;;;;;20.77;49.09;100382.38;106812;1301;18747;-78
2021/12/31 01:59:46;;;;;;;;;8.00;8.00;;;;;20.75;48.97;100388.55;106867;1294;19095;-77
2021/12/31 02:02:13;;;;;;;;;9.67;6.00;;;;;20.77;49.15;100385.13;106894;1292;21380;-78
2021/12/31 02:04:40;;;;;;;;;8.67;6.00;;;;;20.77;48.93;100383.70;106887;1294;18965;-78
2021/12/31 02:07:08;;;;;;;;;6.00;6.00;;;;;20.76;49.08;100394.05;106898;1294;19264;-78
2021/12/31 02:09:39;;;;;;;;;9.33;8.00;;;;;20.76;48.97;100394.48;106811;1292;22291;-78
2021/12/31 02:12:08;;;;;;;;;8.00;6.00;;;;;20.76;49.04;100387.08;106847;1300;21122;-78
2021/12/31 02:14:35;;;;;;;;;6.00;6.00;;;;;20.76;49.11;100385.59;106955;1297;19366;-77
2021/12/31 02:17:07;;;;;;;;;6.00;6.00;;;;;20.76;49.04;100386.50;106833;1302;18032;-77
2021/12/31 02:19:34;;;;;;;;;6.00;6.00;;;;;20.77;49.13;100386.15;106859;1302;18752;-77
2021/12/31 02:22:02;;;;;;;;;5.33;5.00;;;;;20.77;49.00;100375.08;106854;1302;19021;-77
2021/12/31 02:24:29;;;;;;;;;6.00;5.00;;;;;20.78;48.88;100358.33;106810;1302;18006;-79
2021/12/31 02:26:56;;;;;;;;;9.67;6.00;;;;;20.75;49.02;100350.96;106795;1294;20410;-77
2021/12/31 02:29:25;;;;;;;;;7.33;5.67;;;;;20.76;48.81;100356.95;106901;1295;19085;-77
2021/12/31 02:31:52;;;;;;;;;5.33;5.00;;;;;20.77;48.98;100366.95;106936;1294;22054;-78
2021/12/31 02:34:20;;;;;;;;;6.00;5.00;;;;;20.78;48.90;100366.88;106866;1293;18806;-77
2021/12/31 02:36:47;;;;;;;;;5.00;5.00;;;;;20.75;48.77;100365.97;106896;1301;18485;-78
2021/12/31 02:39:14;;;;;;;;;5.50;4.50;;;;;20.74;48.88;100376.49;106845;1302;19303;-78
2021/12/31 02:41:43;;;;;;;;;8.00;5.00;;;;;20.76;48.89;100386.50;106836;1300;20824;-77
2021/12/31 02:44:10;;;;;;;;;8.00;6.00;;;;;20.76;48.89;100386.54;106843;1294;21236;-77
2021/12/31 02:46:38;;;;;;;;;5.00;5.00;;;;;20.75;48.99;100386.81;106820;1300;18239;-77
2021/12/31 02:49:05;;;;;;;;;4.33;4.33;;;;;20.75;48.93;100380.61;106854;1294;19185;-77
2021/12/31 02:51:32;;;;;;;;;8.00;6.00;;;;;20.73;49.05;100368.89;106839;1302;20949;-77
2021/12/31 02:54:00;;;;;;;;;5.67;5.67;;;;;20.75;48.87;100371.90;106845;1299;18680;-78
2021/12/31 02:56:27;;;;;;;;;7.33;6.00;;;;;20.74;48.93;100368.54;106863;1299;18727;-77
2021/12/31 02:58:54;;;;;;;;;8.00;6.00;;;;;20.74;48.84;100361.70;106867;1292;20656;-78
2021/12/31 03:01:22;;;;;;;;;6.00;6.00;;;;;20.73;48.85;100362.72;106812;1302;18148;-75
2021/12/31 03:03:49;;;;;;;;;5.00;5.00;;;;;20.73;48.98;100367.71;106856;1301;18834;-77
2021/12/31 03:06:16;;;;;;;;;6.00;6.00;;;;;20.74;48.89;100366.76;106798;1294;19972;-77
2021/12/31 03:08:44;;;;;;;;;8.00;6.00;;;;;20.73;48.80;100365.79;106872;1302;20891;-76
2021/12/31 03:11:11;;;;;;;;;5.00;5.00;;;;;20.73;48.87;100371.11;106849;1292;22225;-76
2021/12/31 03:13:38;;;;;;;;;6.00;4.00;;;;;20.73;48.82;100374.38;106795;1298;20638;-75
2021/12/31 03:16:06;;;;;;;;;5.00;5.00;;;;;20.73;48.75;100365.45;106919;1296;18190;-76
2021/12/31 03:18:33;;;;;;;;;6.00;5.00;;;;;20.73;48.81;100362.52;106905;1295;21794;-75
2021/12/31 03:21:06;;;;;;;;;5.50;5.00;;;;;20.72;48.80;100372.81;106955;1294;20491;-76
2021/12/31 03:23:33;;;;;;;;;6.00;5.00;;;;;20.73;48.90;100375.64;106924;1296;18377;-76
2021/12/31 03:26:01;;;;;;;;;4.33;4.00;;;;;20.71;48.96;100372.01;106906;1299;19450;-76
2021/12/31 03:28:28;;;;;;;;;5.00;4.33;;;;;20.72;48.93;100374.45;106911;1295;19183;-76
2021/12/31 03:30:55;;;;;;;;;4.00;4.00;;;;;20.71;48.82;100370.00;106832;1301;18007;-76
2021/12/31 03:33:22;;;;;;;;;4.00;4.00;;;;;20.72;48.82;100369.89;106799;1302;18855;-76
2021/12/31 03:35:50;;;;;;;;;4.50;4.00;;;;;20.72;48.81;100368.25;106850;1294;21131;-76
2021/12/31 03:38:17;;;;;;;;;5.33;5.00;;;;;20.72;48.85;100364.65;106875;1302;19804;-76
2021/12/31 03:40:46;;;;;;;;;5.00;5.00;;;;;20.72;48.80;100362.60;106848;1297;25678;-76
2021/12/31 03:43:13;;;;;;;;;5.50;5.50;;;;;20.72;48.85;100361.67;106802;1302;21566;-78
2021/12/31 03:45:41;;;;;;;;;6.00;6.00;;;;;20.72;48.79;100355.26;106770;1298;18135;-76
2021/12/31 03:48:08;;;;;;;;;6.00;5.50;;;;;20.73;48.76;100358.20;106878;1300;18809;-75
2021/12/31 03:50:36;;;;;;;;;5.67;5.67;;;;;20.72;48.79;100360.80;106849;1302;20682;-75
2021/12/31 03:53:03;;;;;;;;;5.00;5.00;;;;;20.72;48.71;100362.05;106937;1301;18029;-76
2021/12/31 03:55:30;;;;;;;;;6.00;5.00;;;;;20.73;48.81;100361.84;106888;1294;18766;-75
2021/12/31 03:57:58;;;;;;;;;5.00;5.00;;;;;20.72;48.80;100360.42;106916;1302;18426;-76
2021/12/31 04:00:28;;;;;;;;;5.00;4.33;;;;;20.71;48.85;100361.91;106847;1302;18292;-75
2021/12/31 04:02:57;;;;;;;;;4.33;4.33;;;;;20.67;48.81;100356.14;106838;1293;20722;-77
2021/12/31 04:05:25;;;;;;;;;4.67;4.67;;;;;20.70;48.72;100360.14;106880;1292;21593;-76
2021/12/31 04:07:52;;;;;;;;;5.00;4.33;;;;;20.70;48.84;100360.55;106885;1302;18690;-77
2021/12/31 04:10:19;;;;;;;;;4.00;4.00;;;;;20.72;48.72;100360.49;106805;1300;18751;-77
2021/12/31 04:12:47;;;;;;;;;5.00;5.00;;;;;20.71;48.72;100358.90;106846;1292;18405;-77
2021/12/31 04:15:14;;;;;;;;;5.00;5.00;;;;;20.71;48.77;100361.37;106850;1295;18319;-76
2021/12/31 04:17:41;;;;;;;;;4.00;4.00;;;;;20.71;48.73;100358.10;106903;1295;22106;-76
2021/12/31 04:20:14;;;;;;;;;5.00;5.00;;;;;20.70;48.80;100358.20;106870;1299;19079;-76
2021/12/31 04:22:50;;;;;;;;;5.33;4.67;;;;;20.68;48.80;100357.66;106931;1295;22082;-77
2021/12/31 04:25:17;;;;;;;;;4.67;4.00;;;;;20.71;48.71;100357.88;106889;1292;22016;-77
2021/12/31 04:27:45;;;;;;;;;5.00;4.00;;;;;20.70;48.63;100360.04;106938;1298;18732;-77
2021/12/31 04:30:12;;;;;;;;;5.00;4.67;;;;;20.68;48.82;100357.64;106935;1294;21259;-77
2021/12/31 04:32:40;;;;;;;;;4.00;4.00;;;;;20.69;48.79;100358.69;106949;1291;22331;-77
2021/12/31 04:35:07;;;;;;;;;3.33;3.33;;;;;20.68;48.83;100354.36;106923;1301;18490;-77
2021/12/31 04:37:35;;;;;;;;;4.00;4.00;;;;;20.68;48.89;100354.44;106857;1295;18552;-77
2021/12/31 04:40:02;;;;;;;;;4.00;4.00;;;;;20.69;48.76;100348.64;106877;1299;19512;-77
2021/12/31 04:42:29;;;;;;;;;5.00;4.67;;;;;20.69;48.75;100347.61;106816;1302;18430;-77
2021/12/31 04:44:57;;;;;;;;;5.00;5.00;;;;;20.68;48.76;100345.01;106904;1294;21185;-77
2021/12/31 04:47:24;;;;;;;;;4.00;4.00;;;;;20.68;48.67;100345.85;106845;1293;20985;-76
2021/12/31 04:49:52;;;;;;;;;4.00;4.00;;;;;20.68;48.83;100347.86;106813;1301;18499;-77
2021/12/31 04:52:19;;;;;;;;;4.50;4.50;;;;;20.69;48.80;100349.24;106898;1293;19816;-77
2021/12/31 04:54:46;;;;;;;;;6.00;5.00;;;;;20.69;48.69;100345.44;106965;1297;18758;-77
2021/12/31 04:57:14;;;;;;;;;4.00;4.00;;;;;20.68;48.61;100341.13;106967;1302;18728;-76
2021/12/31 04:59:41;;;;;;;;;5.33;4.00;;;;;20.70;48.60;100345.48;106990;1294;22234;-77
2021/12/31 05:02:08;;;;;;;;;5.00;5.00;;;;;20.70;48.73;100347.65;106921;1301;18988;-78
2021/12/31 05:04:36;;;;;;;;;2.00;2.00;;;;;20.69;48.64;100344.89;106893;1295;20603;-74
2021/12/31 05:07:03;;;;;;;;;2.00;2.00;;;;;20.70;48.74;100346.15;106828;1298;18049;-74
2021/12/31 05:09:30;;;;;;;;;4.67;4.00;;;;;20.75;48.84;100347.02;106847;1302;18934;-74
2021/12/31 05:11:58;;;;;;;;;4.00;4.00;;;;;20.76;48.92;100349.05;106803;1292;22762;-75
2021/12/31 05:14:25;;;;;;;;;5.00;5.00;;;;;20.78;49.09;100349.20;106903;1298;18461;-75
2021/12/31 05:16:52;;;;;;;;;4.67;4.67;;;;;20.80;49.27;100346.05;106821;1300;19293;-75
2021/12/31 05:19:20;;;;;;;;;4.00;4.00;;;;;20.81;49.45;100346.80;106877;1292;19496;-76
2021/12/31 05:21:47;;;;;;;;;4.00;4.00;;;;;20.82;49.66;100351.34;106806;1291;19896;-76
2021/12/31 05:24:16;;;;;;;;;5.00;5.00;;;;;20.80;49.71;100351.10;106789;1300;18761;-76
2021/12/31 05:26:43;;;;;;;;;5.00;5.00;;;;;20.79;49.82;100348.58;106891;1294;22428;-76
2021/12/31 05:29:11;;;;;;;;;5.00;5.00;;;;;20.76;49.80;100347.58;106871;1298;21262;-76
2021/12/31 05:31:38;;;;;;;;;4.00;4.00;;;;;20.78;49.72;100348.08;106930;1300;18723;-76
2021/12/31 05:34:05;;;;;;;;;4.33;4.33;;;;;20.79;49.75;100347.31;106859;1292;22217;-76
2021/12/31 05:36:33;;;;;;;;;4.00;4.00;;;;;20.77;49.68;100341.89;106881;1302;18736;-75
2021/12/31 05:39:00;;;;;;;;;4.00;4.00;;;;;20.77;49.68;100343.86;106885;1297;25720;-76
2021/12/31 05:41:28;;;;;;;;;6.00;4.67;;;;;20.78;49.70;100342.70;106848;1295;19543;-76
2021/12/31 05:43:56;;;;;;;;;4.00;4.00;;;;;20.77;49.71;100344.74;106984;1289;20594;-75
2021/12/31 05:46:23;;;;;;;;;4.33;4.00;;;;;20.78;49.63;100345.92;107052;1293;18839;-76
2021/12/31 05:48:51;;;;;;;;;4.00;4.00;;;;;20.74;49.66;100340.29;107007;1300;19143;-74
2021/12/31 05:51:18;;;;;;;;;4.00;4.00;;;;;20.77;49.54;100343.73;107154;1293;20167;-74
2021/12/31 05:53:45;;;;;;;;;4.50;4.00;;;;;20.76;49.55;100343.77;106950;1298;18842;-76
2021/12/31 05:56:13;;;;;;;;;5.33;5.00;;;;;20.75;49.44;100343.40;106798;1297;18522;-76
2021/12/31 05:58:40;;;;;;;;;5.00;5.00;;;;;20.75;49.44;100342.49;106788;1300;18978;-76
2021/12/31 06:01:07;;;;;;;;;3.00;3.00;;;;;20.75;49.39;100336.33;106940;1294;19097;-76
2021/12/31 06:03:35;;;;;;;;;4.00;4.00;;;;;20.76;49.42;100337.78;106888;1289;19953;-76
2021/12/31 06:06:02;;;;;;;;;4.33;4.00;;;;;20.77;49.61;100335.02;106855;1295;18149;-77
2021/12/31 06:08:29;;;;;;;;;4.00;4.00;;;;;20.77;49.73;100333.85;106929;1297;19418;-77
2021/12/31 06:10:57;;;;;;;;;4.00;4.00;;;;;20.78;49.93;100331.98;106940;1300;21069;-76
2021/12/31 06:13:25;;;;;;;;;4.00;4.00;;;;;20.78;50.11;100331.73;106927;1295;18173;-76
2021/12/31 06:15:57;;;;;;;;;4.00;3.33;;;;;20.79;49.93;100332.40;106743;1294;21390;-77
2021/12/31 06:18:25;;;;;;;;;5.00;4.00;;;;;20.82;50.03;100335.84;106787;1300;18477;-76
2021/12/31 06:20:52;;;;;;;;;4.00;4.00;;;;;20.88;50.17;100337.98;106941;1301;18663;-76
2021/12/31 06:23:19;;;;;;;;;3.33;3.33;;;;;20.87;50.14;100342.29;106956;1293;18887;-75
2021/12/31 06:25:47;;;;;;;;;4.33;2.67;;;;;20.83;50.65;100343.36;106959;1294;20040;-75
2021/12/31 06:28:14;;;;;;;;;4.00;4.00;;;;;20.84;50.53;100345.98;106923;1301;20998;-76
2021/12/31 06:30:41;;;;;;;;;4.67;4.00;;;;;20.85;50.40;100346.23;106780;1301;20015;-76
2021/12/31 06:33:09;;;;;;;;;3.33;3.33;;;;;20.85;50.65;100349.63;106827;1291;20244;-76
2021/12/31 06:35:36;;;;;;;;;4.00;4.00;;;;;20.85;50.55;100349.80;106973;1290;18042;-76
2021/12/31 06:38:04;;;;;;;;;2.67;2.67;;;;;20.82;50.58;100349.05;106904;1301;19479;-76
2021/12/31 06:40:31;;;;;;;;;4.50;4.00;;;;;20.82;50.53;100345.98;106878;1293;19903;-76
2021/12/31 06:43:00;;;;;;;;;4.00;4.00;;;;;20.81;50.47;100347.19;106768;1301;20163;-76
2021/12/31 06:45:28;;;;;;;;;4.00;4.00;;;;;20.84;50.45;100344.67;106845;1292;21394;-74
2021/12/31 06:47:55;;;;;;;;;4.00;4.00;;;;;20.87;50.32;100348.42;106823;1296;18354;-75
2021/12/31 06:50:22;;;;;;;;;5.00;4.33;;;;;20.89;50.49;100350.99;106871;1298;19337;-75
2021/12/31 06:52:50;;;;;;;;;4.00;4.00;;;;;20.90;50.44;100354.52;106825;1301;19548;-75
2021/12/31 06:55:17;;;;;;;;;4.33;4.33;;;;;20.91;50.51;100352.73;106668;1304;18457;-76
2021/12/31 06:57:46;;;;;;;;;5.00;4.00;;;;;20.92;50.65;100356.02;106798;1294;21923;-76
2021/12/31 07:00:13;;;;;;;;;2.00;2.00;;;;;20.89;51.01;100349.40;106958;1290;21312;-75
2021/12/31 07:02:41;;;;;;;;;2.67;2.67;;;;;20.92;50.92;100353.88;106920;1295;18473;-75
2021/12/31 07:05:08;;;;;;;;;2.00;2.00;;;;;20.94;50.93;100354.55;106962;1300;18366;-75
2021/12/31 07:07:35;;;;;;;;;4.00;4.00;;;;;20.95;51.14;100352.46;106872;1294;20069;-75
2021/12/31 07:10:03;;;;;;;;;2.00;2.00;;;;;20.95;51.28;100353.98;106909;1295;20201;-75
2021/12/31 07:12:30;;;;;;;;;4.00;3.33;;;;;20.94;51.50;100353.32;106852;1301;18154;-75
2021/12/31 07:14:57;;;;;;;;;2.00;2.00;;;;;20.91;51.78;100355.42;106893;1294;19672;-76
2021/12/31 07:17:28;;;;;;;;;4.00;4.00;;;;;20.88;51.68;100357.31;106922;1301;18457;-75
2021/12/31 07:19:55;;;;;;;;;6.00;4.00;;;;;20.88;51.72;100355.68;106937;1296;20181;-75
2021/12/31 07:22:23;;;;;;;;;4.00;4.00;;;;;20.86;51.73;100359.29;106910;1301;18727;-76
2021/12/31 07:24:51;;;;;;;;;4.33;4.33;;;;;20.85;51.79;100358.89;106853;1292;22023;-75
2021/12/31 07:27:18;;;;;;;;;4.00;4.00;;;;;20.89;51.76;100358.45;106860;1294;18532;-75
2021/12/31 07:29:45;;;;;;;;;4.00;4.00;;;;;20.94;51.32;100353.84;106917;1301;19446;-75
2021/12/31 07:32:13;;;;;;;;;2.00;2.00;;;;;20.98;51.42;100351.67;106941;1290;22002;-76
2021/12/31 07:34:40;;;;;;;;;4.00;4.00;;;;;20.98;51.93;100352.54;106787;1296;18413;-76
2021/12/31 07:37:07;;;;;;;;;4.00;4.00;;;;;21.01;51.62;100353.30;106752;1302;18786;-76
2021/12/31 07:39:35;;;;;;;;;5.00;5.00;;;;;21.06;51.81;100359.71;106662;1296;18713;-75
2021/12/31 07:42:03;;;;;;;;;4.50;4.50;;;;;21.06;54.24;100357.91;106523;1296;27863;-75
2021/12/31 07:44:30;;;;;;;;;5.00;5.00;;;;;21.02;54.33;100357.83;106638;1301;19434;-75
2021/12/31 07:46:58;;;;;;;;;5.50;5.00;;;;;21.07;53.99;100356.36;106784;1296;23634;-76
2021/12/31 07:49:25;;;;;;;;;6.67;6.00;;;;;21.13;55.05;100358.95;106978;1301;18147;-75
2021/12/31 07:51:52;;;;;;;;;8.33;8.33;;;;;21.16;56.58;100358.91;106830;1291;19244;-75
2021/12/31 07:54:19;;;;;;;;;10.00;9.33;;;;;21.19;58.57;100358.25;106727;1298;18497;-75
2021/12/31 07:56:47;;;;;;;;;9.00;9.00;;;;;21.21;59.69;100356.63;106727;1304;18244;-75
2021/12/31 07:59:14;;;;;;;;;10.00;9.50;;;;;21.18;59.81;100353.91;106811;1292;20318;-75
2021/12/31 08:01:41;;;;;;;;;10.00;10.00;;;;;21.14;59.91;100353.31;106658;1296;18314;-75
2021/12/31 08:04:09;;;;;;;;;12.67;10.00;;;;;21.12;59.07;100357.05;106850;1302;20930;-75
2021/12/31 08:06:36;;;;;;;;;10.67;9.33;;;;;21.12;59.10;100356.18;106873;1290;22009;-76
2021/12/31 08:09:03;;;;;;;;;11.33;10.00;;;;;21.15;58.46;100360.57;107036;1299;18904;-75
2021/12/31 08:11:31;;;;;;;;;11.33;11.33;;;;;21.17;58.82;100362.59;106923;1299;19121;-75
2021/12/31 08:13:58;;;;;;;;;12.67;12.33;;;;;21.19;58.46;100366.60;106866;1294;20052;-76
2021/12/31 08:16:25;;;;;;;;;12.00;9.00;;;;;21.21;58.10;100359.74;106778;1301;19719;-74
2021/12/31 08:18:53;;;;;;;;;12.33;9.67;;;;;21.21;58.38;100356.98;106897;1291;21027;-76
2021/12/31 08:21:20;;;;;;;;;13.00;12.00;;;;;21.19;57.87;100355.05;106801;1290;21463;-75
2021/12/31 08:23:48;;;;;;;;;12.33;10.00;;;;;21.18;57.72;100352.48;106888;1300;18841;-75
2021/12/31 08:26:15;;;;;;;;;11.33;11.33;;;;;21.22;57.40;100348.69;106920;1301;19245;-75
2021/12/31 08:28:42;;;;;;;;;12.00;10.00;;;;;21.19;57.22;100345.97;106981;1290;21517;-78
2021/12/31 08:31:10;;;;;;;;;12.00;11.33;;;;;21.16;56.96;100346.38;106896;1295;18743;-76
2021/12/31 08:33:37;;;;;;;;;14.00;12.00;;;;;21.13;56.54;100347.65;106927;1291;20832;-76
2021/12/31 08:36:04;;;;;;;;;9.00;9.00;;;;;21.11;57.02;100344.43;106734;1303;19402;-77
2021/12/31 09:40:15;;;;;;;;;90.00;65.00;;;;;21.01;54.99;100346.15;106615;1299;18358;-76
2021/12/31 09:42:43;;;;;;;;;89.67;64.67;;;;;21.07;55.20;100337.63;106784;1296;22115;-77
2021/12/31 09:45:10;;;;;;;;;82.67;61.67;;;;;21.17;55.22;100342.86;106796;1303;18799;-75
2021/12/31 09:47:37;;;;;;;;;84.00;60.00;;;;;21.18;55.10;100338.30;106705;1301;18387;-76
2021/12/31 09:50:05;;;;;;;;;80.67;59.67;;;;;21.18;55.07;100347.72;106711;1295;22032;-76
2021/12/31 09:52:32;;;;;;;;;76.67;57.67;;;;;21.15;55.01;100347.88;106611;1303;18821;-76
2021/12/31 09:55:00;;;;;;;;;66.00;51.00;;;;;21.07;55.20;100342.73;106745;1302;18312;-77
2021/12/31 09:57:27;;;;;;;;;69.00;52.33;;;;;20.96;54.98;100346.27;106702;1295;23214;-76
2021/12/31 10:00:00;;;;;;;;;63.00;49.00;;;;;20.91;54.87;100345.86;106705;1304;18767;-76
2021/12/31 10:02:27;;;;;;;;;59.50;47.50;;;;;20.83;54.84;100346.93;106699;1296;19149;-76
2021/12/31 10:04:54;;;;;;;;;61.67;47.33;;;;;20.78;54.71;100344.29;106703;1301;18897;-76
2021/12/31 10:07:23;;;;;;;;;57.67;45.67;;;;;20.72;54.75;100340.01;106659;1302;19446;-76
2021/12/31 10:09:51;;;;;;;;;50.33;41.00;;;;;20.69;54.67;100342.14;106740;1304;18961;-77
2021/12/31 10:12:18;;;;;;;;;50.50;40.00;;;;;20.66;54.69;100338.58;106611;1294;21795;-77
2021/12/31 10:14:45;;;;;;;;;54.67;42.33;;;;;20.64;54.48;100327.20;106632;1303;19487;-78
2021/12/31 10:17:13;;;;;;;;;42.67;39.00;;;;;20.62;54.49;100330.48;106603;1292;24327;-77
2021/12/31 10:19:40;;;;;;;;;37.00;31.50;;;;;20.61;54.44;100323.23;106552;1304;19356;-77
2021/12/31 10:22:11;;;;;;;;;40.33;34.33;;;;;20.60;54.32;100323.62;106671;1304;18961;-77
2021/12/31 10:24:38;;;;;;;;;42.00;37.00;;;;;20.58;54.25;100317.93;106607;1292;22682;-77
2021/12/31 10:27:06;;;;;;;;;42.00;35.33;;;;;20.55;54.14;100315.15;106658;1294;18966;-76
2021/12/31 10:29:33;;;;;;;;;42.00;35.33;;;;;20.53;54.17;100315.34;106697;1298;18977;-77
2021/12/31 10:32:00;;;;;;;;;38.33;28.00;;;;;20.51;54.19;100314.73;106718;1302;18303;-77
2021/12/31 10:34:29;;;;;;;;;33.33;29.33;;;;;20.50;54.06;100311.89;106717;1300;18757;-77
2021/12/31 10:36:56;;;;;;;;;33.00;30.50;;;;;20.50;54.00;100317.34;106595;1304;19661;-78
2021/12/31 10:39:23;;;;;;;;;34.00;28.67;;;;;20.49;53.80;100316.53;106629;1292;27833;-77
2021/12/31 10:41:51;;;;;;;;;33.00;28.00;;;;;20.48;53.85;100315.34;106760;1303;18745;-77
2021/12/31 10:44:18;;;;;;;;;34.33;27.00;;;;;20.45;53.95;100310.33;106673;1304;18793;-77
2021/12/31 10:46:45;;;;;;;;;25.00;24.00;;;;;20.45;53.81;100312.00;106670;1304;19106;-77
2021/12/31 10:49:13;;;;;;;;;27.67;25.00;;;;;20.45;53.69;100314.14;106633;1296;18916;-76
2021/12/31 10:51:40;;;;;;;;;29.00;24.67;;;;;20.42;53.80;100315.77;106667;1293;21942;-75
2021/12/31 10:54:08;;;;;;;;;32.00;28.33;;;;;20.44;53.64;100316.77;106524;1304;18319;-74
2021/12/31 10:56:35;;;;;;;;;25.00;23.67;;;;;20.57;53.86;100320.35;106704;1304;19376;-77
2021/12/31 10:59:05;;;;;;;;;35.50;27.00;;;;;20.67;54.04;100313.20;106703;1304;21373;-78
2021/12/31 11:01:32;;;;;;;;;24.50;21.00;;;;;20.71;53.98;100314.65;106667;1292;19741;-77
2021/12/31 11:04:00;;;;;;;;;32.00;25.00;;;;;20.75;53.89;100314.50;106642;1302;18868;-76
2021/12/31 11:06:27;;;;;;;;;30.00;26.00;;;;;20.78;54.13;100309.77;106666;1302;18981;-76
2021/12/31 11:08:55;;;;;;;;;31.67;26.67;;;;;20.79;54.32;100315.81;106737;1293;20208;-75
2021/12/31 11:11:24;;;;;;;;;26.67;23.67;;;;;20.85;54.19;100309.83;106651;1296;20150;-75
2021/12/31 11:13:52;;;;;;;;;28.50;23.50;;;;;20.89;54.56;100307.91;106660;1296;22724;-75
2021/12/31 11:16:19;;;;;;;;;23.50;23.00;;;;;20.93;54.47;100305.41;106607;1299;18344;-76
2021/12/31 11:18:46;;;;;;;;;27.33;24.00;;;;;20.95;54.77;100311.31;106646;1299;19826;-76
2021/12/31 11:21:14;;;;;;;;;27.00;21.00;;;;;20.95;55.12;100308.75;106487;1297;20241;-75
2021/12/31 11:23:42;;;;;;;;;23.33;20.67;;;;;20.96;55.18;100312.36;106663;1304;19171;-75
2021/12/31 11:26:11;;;;;;;;;26.00;24.00;;;;;20.98;55.16;100305.77;106698;1292;20349;-75
2021/12/31 11:28:38;;;;;;;;;24.00;20.00;;;;;21.02;54.99;100304.98;106624;1296;18934;-75
2021/12/31 11:31:06;;;;;;;;;22.00;20.00;;;;;21.01;55.25;100306.66;106545;1302;20565;-76
2021/12/31 11:33:33;;;;;;;;;21.67;20.00;;;;;21.02;55.26;100308.67;106496;1293;20191;-75
2021/12/31 11:36:00;;;;;;;;;25.00;22.00;;;;;21.05;55.93;100296.52;106589;1294;22023;-76
2021/12/31 11:38:28;;;;;;;;;54.00;41.33;;;;;21.06;56.06;100297.09;106553;1298;18327;-76
2021/12/31 11:40:55;;;;;;;;;115.67;89.33;;;;;21.06;56.43;100292.69;106579;1301;19002;-77
2021/12/31 11:43:24;;;;;;;;;152.00;121.00;;;;;21.08;56.42;100290.68;106575;1304;18747;-76
2021/12/31 11:45:51;;;;;;;;;149.50;116.50;;;;;21.11;56.52;100294.70;106533;1303;19535;-76
2021/12/31 11:48:18;;;;;;;;;184.25;137.50;;;;;21.14;56.46;100290.81;106592;1302;19342;-79
2021/12/31 11:50:46;;;;;;;;;183.50;134.50;;;;;21.15;56.63;100287.70;106610;1304;19081;-74
2021/12/31 11:53:13;;;;;;;;;138.75;108.25;;;;;21.20;56.65;100287.98;106692;1298;28432;-74
2021/12/31 11:55:41;;;;;;;;;109.33;84.67;;;;;21.23;56.02;100276.12;106423;1297;22109;-75
2021/12/31 11:58:08;;;;;;;;;119.00;84.00;;;;;21.20;55.76;100266.81;106596;1302;19887;-75
2021/12/31 12:00:35;;;;;;;;;105.00;82.00;;;;;21.20;55.97;100263.55;106482;1296;21956;-75
2021/12/31 12:03:03;;;;;;;;;102.67;75.00;;;;;21.16;56.22;100256.63;106470;1304;19448;-75
2021/12/31 12:05:30;;;;;;;;;97.00;71.67;;;;;21.14;56.40;100255.12;106765;1300;19267;-76
2021/12/31 12:07:57;;;;;;;;;102.00;71.33;;;;;21.16;57.04;100248.48;106805;1292;20758;-76
2021/12/31 12:10:25;;;;;;;;;94.50;68.50;;;;;21.16;57.15;100247.69;106713;1296;22378;-76
2021/12/31 12:12:53;;;;;;;;;95.33;67.67;;;;;21.15;57.12;100243.85;106630;1302;19784;-76
2021/12/31 12:15:20;;;;;;;;;84.33;62.00;;;;;21.17;57.24;100242.73;106721;1296;18979;-76